sensor_id;sensor_type;location;lat;lon;timestamp;pressure;altitude;pressure_sealevel;temperature;humidity
43364;BME280;40636;52.424;-1.948;2023-10-31T00:02:01;98242.41;;;7.89;86.17
43364;BME280;40636;52.424;-1.948;2023-10-31T00:04:27;98238.13;;;7.88;86.09
43364;BME280;40636;52.424;-1.948;2023-10-31T00:06:54;98239.78;;;7.90;86.21
43364;BME280;40636;52.424;-1.948;2023-10-31T00:09:21;98246.63;;;7.91;86.47
43364;BME280;40636;52.424;-1.948;2023-10-31T00:11:48;98237.94;;;7.94;87.18
43364;BME280;40636;52.424;-1.948;2023-10-31T00:14:14;98244.75;;;7.98;86.62
43364;BME280;40636;52.424;-1.948;2023-10-31T00:16:59;98235.97;;;8.04;86.63
43364;BME280;40636;52.424;-1.948;2023-10-31T00:19:26;98244.34;;;8.13;87.07
43364;BME280;40636;52.424;-1.948;2023-10-31T00:21:53;98232.09;;;8.20;87.25
43364;BME280;40636;52.424;-1.948;2023-10-31T00:24:20;98238.75;;;8.29;87.63
43364;BME280;40636;52.424;-1.948;2023-10-31T00:26:47;98242.03;;;8.35;87.19
43364;BME280;40636;52.424;-1.948;2023-10-31T00:29:14;98243.56;;;8.42;87.57
43364;BME280;40636;52.424;-1.948;2023-10-31T00:31:41;98248.59;;;8.47;87.64
43364;BME280;40636;52.424;-1.948;2023-10-31T00:34:09;98248.44;;;8.53;87.64
43364;BME280;40636;52.424;-1.948;2023-10-31T00:36:36;98244.16;;;8.52;87.07
43364;BME280;40636;52.424;-1.948;2023-10-31T00:39:03;98242.28;;;8.57;87.55
43364;BME280;40636;52.424;-1.948;2023-10-31T00:41:30;98241.34;;;8.60;87.33
43364;BME280;40636;52.424;-1.948;2023-10-31T00:43:57;98253.34;;;8.62;87.23
43364;BME280;40636;52.424;-1.948;2023-10-31T00:46:24;98252.34;;;8.66;86.99
43364;BME280;40636;52.424;-1.948;2023-10-31T00:48:51;98252.31;;;8.69;87.60
43364;BME280;40636;52.424;-1.948;2023-10-31T00:51:17;98253.91;;;8.73;86.90
43364;BME280;40636;52.424;-1.948;2023-10-31T00:53:45;98250.41;;;8.74;87.13
43364;BME280;40636;52.424;-1.948;2023-10-31T00:56:41;98245.25;;;8.74;87.24
43364;BME280;40636;52.424;-1.948;2023-10-31T00:59:08;98236.50;;;8.78;87.45
43364;BME280;40636;52.424;-1.948;2023-10-31T01:01:35;98239.88;;;8.80;86.49
43364;BME280;40636;52.424;-1.948;2023-10-31T01:04:02;98239.84;;;8.82;87.47
43364;BME280;40636;52.424;-1.948;2023-10-31T01:06:29;98245.81;;;8.84;86.96
43364;BME280;40636;52.424;-1.948;2023-10-31T01:08:56;98243.28;;;8.82;87.35
43364;BME280;40636;52.424;-1.948;2023-10-31T01:11:22;98246.66;;;8.84;87.08
43364;BME280;40636;52.424;-1.948;2023-10-31T01:13:49;98244.06;;;8.84;87.11
43364;BME280;40636;52.424;-1.948;2023-10-31T01:16:16;98246.63;;;8.86;86.88
43364;BME280;40636;52.424;-1.948;2023-10-31T01:18:43;98244.88;;;8.86;86.60
43364;BME280;40636;52.424;-1.948;2023-10-31T01:21:10;98241.38;;;8.87;86.66
43364;BME280;40636;52.424;-1.948;2023-10-31T01:23:37;98240.50;;;8.88;86.99
43364;BME280;40636;52.424;-1.948;2023-10-31T01:26:04;98243.97;;;8.87;86.67
43364;BME280;40636;52.424;-1.948;2023-10-31T01:28:31;98243.13;;;8.87;86.54
43364;BME280;40636;52.424;-1.948;2023-10-31T01:30:58;98242.25;;;8.88;87.22
43364;BME280;40636;52.424;-1.948;2023-10-31T01:33:25;98234.38;;;8.91;87.03
43364;BME280;40636;52.424;-1.948;2023-10-31T01:35:52;98235.28;;;8.90;86.82
43364;BME280;40636;52.424;-1.948;2023-10-31T01:38:19;98239.59;;;8.90;86.06
43364;BME280;40636;52.424;-1.948;2023-10-31T01:40:49;98244.91;;;8.85;86.34
43364;BME280;40636;52.424;-1.948;2023-10-31T01:43:35;98238.06;;;8.84;87.16
43364;BME280;40636;52.424;-1.948;2023-10-31T01:46:04;98244.88;;;8.86;86.04
43364;BME280;40636;52.424;-1.948;2023-10-31T01:48:32;98243.97;;;8.87;86.05
43364;BME280;40636;52.424;-1.948;2023-10-31T01:51:02;98231.88;;;8.88;86.23
43364;BME280;40636;52.424;-1.948;2023-10-31T01:53:34;98250.84;;;8.88;85.90
43364;BME280;40636;52.424;-1.948;2023-10-31T01:56:03;98248.25;;;8.88;86.19
43364;BME280;40636;52.424;-1.948;2023-10-31T01:58:36;98242.19;;;8.90;86.50
43364;BME280;40636;52.424;-1.948;2023-10-31T02:01:04;98252.56;;;8.90;86.32
43364;BME280;40636;52.424;-1.948;2023-10-31T02:03:31;98238.66;;;8.92;86.50
43364;BME280;40636;52.424;-1.948;2023-10-31T02:06:00;98241.31;;;8.91;86.70
43364;BME280;40636;52.424;-1.948;2023-10-31T02:08:27;98240.44;;;8.90;86.02
43364;BME280;40636;52.424;-1.948;2023-10-31T02:10:54;98244.78;;;8.90;86.38
43364;BME280;40636;52.424;-1.948;2023-10-31T02:13:23;98246.53;;;8.89;85.90
43364;BME280;40636;52.424;-1.948;2023-10-31T02:15:50;98243.94;;;8.89;86.03
43364;BME280;40636;52.424;-1.948;2023-10-31T02:18:17;98245.63;;;8.90;86.66
43364;BME280;40636;52.424;-1.948;2023-10-31T02:20:44;98233.56;;;8.89;86.69
43364;BME280;40636;52.424;-1.948;2023-10-31T02:23:11;98238.81;;;8.87;86.01
43364;BME280;40636;52.424;-1.948;2023-10-31T02:25:38;98233.63;;;8.87;85.92
43364;BME280;40636;52.424;-1.948;2023-10-31T02:28:05;98238.81;;;8.87;86.51
43364;BME280;40636;52.424;-1.948;2023-10-31T02:30:32;98238.81;;;8.87;86.07
43364;BME280;40636;52.424;-1.948;2023-10-31T02:33:00;98231.84;;;8.90;86.29
43364;BME280;40636;52.424;-1.948;2023-10-31T02:35:27;98229.25;;;8.90;86.26
43364;BME280;40636;52.424;-1.948;2023-10-31T02:37:54;98230.09;;;8.90;86.51
43364;BME280;40636;52.424;-1.948;2023-10-31T02:40:21;98231.84;;;8.90;86.04
43364;BME280;40636;52.424;-1.948;2023-10-31T02:42:48;98224.97;;;8.88;86.54
43364;BME280;40636;52.424;-1.948;2023-10-31T02:45:15;98228.44;;;8.87;86.29
43364;BME280;40636;52.424;-1.948;2023-10-31T02:47:42;98218.09;;;8.87;86.54
43364;BME280;40636;52.424;-1.948;2023-10-31T02:50:11;98217.25;;;8.87;86.04
43364;BME280;40636;52.424;-1.948;2023-10-31T02:52:38;98215.53;;;8.86;85.95
43364;BME280;40636;52.424;-1.948;2023-10-31T02:55:05;98218.13;;;8.86;86.29
43364;BME280;40636;52.424;-1.948;2023-10-31T02:57:32;98208.69;;;8.85;85.93
43364;BME280;40636;52.424;-1.948;2023-10-31T02:59:58;98211.25;;;8.85;86.94
43364;BME280;40636;52.424;-1.948;2023-10-31T03:02:25;98211.25;;;8.85;86.48
43364;BME280;40636;52.424;-1.948;2023-10-31T03:04:53;98213.91;;;8.83;86.58
43364;BME280;40636;52.424;-1.948;2023-10-31T03:07:20;98217.28;;;8.85;86.88
43364;BME280;40636;52.424;-1.948;2023-10-31T03:09:49;98223.31;;;8.86;86.72
43364;BME280;40636;52.424;-1.948;2023-10-31T03:12:16;98221.53;;;8.88;86.44
43364;BME280;40636;52.424;-1.948;2023-10-31T03:14:43;98225.00;;;8.87;86.15
43364;BME280;40636;52.424;-1.948;2023-10-31T03:17:09;98228.41;;;8.89;86.33
43364;BME280;40636;52.424;-1.948;2023-10-31T03:19:36;98222.50;;;8.84;86.24
43364;BME280;40636;52.424;-1.948;2023-10-31T03:22:04;98227.66;;;8.85;86.45
43364;BME280;40636;52.424;-1.948;2023-10-31T03:24:32;98218.09;;;8.87;87.04
43364;BME280;40636;52.424;-1.948;2023-10-31T03:26:59;98222.41;;;8.87;86.08
43364;BME280;40636;52.424;-1.948;2023-10-31T03:29:25;98237.16;;;8.85;86.99
43364;BME280;40636;52.424;-1.948;2023-10-31T03:31:52;98269.06;;;8.85;87.11
43364;BME280;40636;52.424;-1.948;2023-10-31T03:34:19;98267.41;;;8.83;86.01
43364;BME280;40636;52.424;-1.948;2023-10-31T03:36:46;98247.59;;;8.82;86.53
43364;BME280;40636;52.424;-1.948;2023-10-31T03:39:12;98241.56;;;8.81;86.88
43364;BME280;40636;52.424;-1.948;2023-10-31T03:41:39;98244.16;;;8.81;86.42
43364;BME280;40636;52.424;-1.948;2023-10-31T03:44:05;98233.72;;;8.84;87.40
43364;BME280;40636;52.424;-1.948;2023-10-31T03:46:32;98224.22;;;8.85;87.31
43364;BME280;40636;52.424;-1.948;2023-10-31T03:48:59;98220.69;;;8.87;87.55
43364;BME280;40636;52.424;-1.948;2023-10-31T03:51:26;98218.88;;;8.90;87.09
43364;BME280;40636;52.424;-1.948;2023-10-31T03:53:52;98226.59;;;8.91;87.33
43364;BME280;40636;52.424;-1.948;2023-10-31T03:56:19;98235.19;;;8.93;87.58
43364;BME280;40636;52.424;-1.948;2023-10-31T03:58:46;98230.84;;;8.94;86.72
43364;BME280;40636;52.424;-1.948;2023-10-31T04:01:12;98239.38;;;8.97;87.46
43364;BME280;40636;52.424;-1.948;2023-10-31T04:03:39;98241.06;;;8.98;86.54
43364;BME280;40636;52.424;-1.948;2023-10-31T04:06:06;98236.72;;;8.99;87.42
43364;BME280;40636;52.424;-1.948;2023-10-31T04:08:33;98241.00;;;9.00;86.78
43364;BME280;40636;52.424;-1.948;2023-10-31T04:11:00;98251.38;;;9.00;87.25
43364;BME280;40636;52.424;-1.948;2023-10-31T04:13:26;98249.69;;;8.99;87.07
43364;BME280;40636;52.424;-1.948;2023-10-31T04:15:53;98260.84;;;9.01;87.07
43364;BME280;40636;52.424;-1.948;2023-10-31T04:18:20;98259.09;;;9.01;86.89
43364;BME280;40636;52.424;-1.948;2023-10-31T04:20:47;98261.63;;;9.03;87.45
43364;BME280;40636;52.424;-1.948;2023-10-31T04:23:14;98255.56;;;9.04;86.63
43364;BME280;40636;52.424;-1.948;2023-10-31T04:25:41;98267.56;;;9.06;86.68
43364;BME280;40636;52.424;-1.948;2023-10-31T04:28:08;98266.69;;;9.07;86.79
43364;BME280;40636;52.424;-1.948;2023-10-31T04:30:34;98266.63;;;9.09;86.99
43364;BME280;40636;52.424;-1.948;2023-10-31T04:33:01;98277.84;;;9.09;87.52
43364;BME280;40636;52.424;-1.948;2023-10-31T04:35:28;98272.63;;;9.11;86.82
43364;BME280;40636;52.424;-1.948;2023-10-31T04:37:54;98266.53;;;9.12;87.19
43364;BME280;40636;52.424;-1.948;2023-10-31T04:40:21;98275.09;;;9.14;87.34
43364;BME280;40636;52.424;-1.948;2023-10-31T04:42:48;98269.94;;;9.14;87.72
43364;BME280;40636;52.424;-1.948;2023-10-31T04:45:14;98276.81;;;9.15;87.28
43364;BME280;40636;52.424;-1.948;2023-10-31T04:47:41;98281.09;;;9.16;87.46
43364;BME280;40636;52.424;-1.948;2023-10-31T04:50:09;98275.94;;;9.14;87.17
43364;BME280;40636;52.424;-1.948;2023-10-31T04:52:36;98275.00;;;9.17;87.31
43364;BME280;40636;52.424;-1.948;2023-10-31T04:55:02;98276.66;;;9.19;87.57
43364;BME280;40636;52.424;-1.948;2023-10-31T04:57:29;98268.00;;;9.20;87.60
43364;BME280;40636;52.424;-1.948;2023-10-31T04:59:56;98275.75;;;9.20;86.84
43364;BME280;40636;52.424;-1.948;2023-10-31T05:02:24;98277.50;;;9.20;87.43
43364;BME280;40636;52.424;-1.948;2023-10-31T05:04:51;98270.59;;;9.20;86.76
43364;BME280;40636;52.424;-1.948;2023-10-31T05:07:18;98279.19;;;9.21;87.07
43364;BME280;40636;52.424;-1.948;2023-10-31T05:09:45;98267.94;;;9.22;87.15
43364;BME280;40636;52.424;-1.948;2023-10-31T05:12:13;98273.91;;;9.24;87.80
43364;BME280;40636;52.424;-1.948;2023-10-31T05:14:40;98259.22;;;9.26;86.96
43364;BME280;40636;52.424;-1.948;2023-10-31T05:17:07;98269.56;;;9.26;87.77
43364;BME280;40636;52.424;-1.948;2023-10-31T05:19:33;98267.78;;;9.28;87.67
43364;BME280;40636;52.424;-1.948;2023-10-31T05:22:00;98269.53;;;9.28;87.31
43364;BME280;40636;52.424;-1.948;2023-10-31T05:24:27;98266.94;;;9.28;87.26
43364;BME280;40636;52.424;-1.948;2023-10-31T05:26:53;98270.38;;;9.28;86.88
43364;BME280;40636;52.424;-1.948;2023-10-31T05:29:20;98275.56;;;9.28;87.45
43364;BME280;40636;52.424;-1.948;2023-10-31T05:31:47;98278.16;;;9.28;87.28
43364;BME280;40636;52.424;-1.948;2023-10-31T05:34:14;98279.03;;;9.27;87.92
43364;BME280;40636;52.424;-1.948;2023-10-31T05:36:40;98291.94;;;9.29;86.88
43364;BME280;40636;52.424;-1.948;2023-10-31T05:39:07;98292.84;;;9.28;87.13
43364;BME280;40636;52.424;-1.948;2023-10-31T05:41:34;98289.44;;;9.26;87.11
43364;BME280;40636;52.424;-1.948;2023-10-31T05:44:02;98277.34;;;9.26;87.29
43364;BME280;40636;52.424;-1.948;2023-10-31T05:46:29;98280.78;;;9.27;86.74
43364;BME280;40636;52.424;-1.948;2023-10-31T05:48:56;98280.72;;;9.28;87.76
43364;BME280;40636;52.424;-1.948;2023-10-31T05:51:22;98286.72;;;9.30;87.39
43364;BME280;40636;52.424;-1.948;2023-10-31T05:53:52;98288.50;;;9.28;87.25
43364;BME280;40636;52.424;-1.948;2023-10-31T05:56:18;98293.69;;;9.28;87.57
43364;BME280;40636;52.424;-1.948;2023-10-31T05:58:45;98296.28;;;9.28;86.71
43364;BME280;40636;52.424;-1.948;2023-10-31T06:01:12;98297.97;;;9.29;86.64
43364;BME280;40636;52.424;-1.948;2023-10-31T06:03:41;98307.44;;;9.30;87.12
43364;BME280;40636;52.424;-1.948;2023-10-31T06:06:11;98301.38;;;9.31;87.06
43364;BME280;40636;52.424;-1.948;2023-10-31T06:08:39;98305.66;;;9.32;87.36
43364;BME280;40636;52.424;-1.948;2023-10-31T06:11:06;98309.94;;;9.33;87.04
43364;BME280;40636;52.424;-1.948;2023-10-31T06:13:33;98316.03;;;9.32;87.41
43364;BME280;40636;52.424;-1.948;2023-10-31T06:16:00;98315.19;;;9.32;87.52
43364;BME280;40636;52.424;-1.948;2023-10-31T06:18:28;98304.81;;;9.32;87.19
43364;BME280;40636;52.424;-1.948;2023-10-31T06:20:55;98318.63;;;9.32;87.34
43364;BME280;40636;52.424;-1.948;2023-10-31T06:23:22;98310.00;;;9.32;87.38
43364;BME280;40636;52.424;-1.948;2023-10-31T06:25:50;98305.59;;;9.34;87.46
43364;BME280;40636;52.424;-1.948;2023-10-31T06:28:17;98310.00;;;9.32;86.92
43364;BME280;40636;52.424;-1.948;2023-10-31T06:30:44;98313.47;;;9.31;87.20
43364;BME280;40636;52.424;-1.948;2023-10-31T06:33:11;98322.16;;;9.30;87.04
43364;BME280;40636;52.424;-1.948;2023-10-31T06:35:39;98322.19;;;9.28;87.11
43364;BME280;40636;52.424;-1.948;2023-10-31T06:38:05;98321.28;;;9.29;86.46
43364;BME280;40636;52.424;-1.948;2023-10-31T06:40:35;98322.16;;;9.30;87.22
43364;BME280;40636;52.424;-1.948;2023-10-31T06:43:02;98329.06;;;9.29;86.75
43364;BME280;40636;52.424;-1.948;2023-10-31T06:45:28;98325.63;;;9.29;87.14
43364;BME280;40636;52.424;-1.948;2023-10-31T06:47:55;98320.50;;;9.27;87.50
43364;BME280;40636;52.424;-1.948;2023-10-31T06:50:23;98328.28;;;9.27;86.87
43364;BME280;40636;52.424;-1.948;2023-10-31T06:52:50;98320.44;;;9.29;87.45
43364;BME280;40636;52.424;-1.948;2023-10-31T06:55:17;98329.97;;;9.28;86.78
43364;BME280;40636;52.424;-1.948;2023-10-31T06:57:44;98329.13;;;9.28;87.35
43364;BME280;40636;52.424;-1.948;2023-10-31T07:00:11;98333.44;;;9.27;86.88
43364;BME280;40636;52.424;-1.948;2023-10-31T07:02:38;98345.50;;;9.28;87.21
43364;BME280;40636;52.424;-1.948;2023-10-31T07:05:05;98348.91;;;9.30;87.17
43364;BME280;40636;52.424;-1.948;2023-10-31T07:07:32;98347.22;;;9.29;87.57
43364;BME280;40636;52.424;-1.948;2023-10-31T07:09:59;98348.06;;;9.30;87.83
43364;BME280;40636;52.424;-1.948;2023-10-31T07:12:27;98358.38;;;9.31;87.32
43364;BME280;40636;52.424;-1.948;2023-10-31T07:14:54;98361.81;;;9.32;87.16
43364;BME280;40636;52.424;-1.948;2023-10-31T07:17:21;98357.47;;;9.32;87.41
43364;BME280;40636;52.424;-1.948;2023-10-31T07:19:48;98366.09;;;9.33;87.45
43364;BME280;40636;52.424;-1.948;2023-10-31T07:22:15;98369.53;;;9.33;87.51
43364;BME280;40636;52.424;-1.948;2023-10-31T07:24:42;98369.53;;;9.33;87.16
43364;BME280;40636;52.424;-1.948;2023-10-31T07:27:10;98375.53;;;9.35;87.89
43364;BME280;40636;52.424;-1.948;2023-10-31T07:29:39;98378.13;;;9.35;87.17
43364;BME280;40636;52.424;-1.948;2023-10-31T07:32:08;98377.22;;;9.36;86.98
43364;BME280;40636;52.424;-1.948;2023-10-31T07:34:38;98383.22;;;9.38;87.18
43364;BME280;40636;52.424;-1.948;2023-10-31T07:37:06;98374.53;;;9.39;87.82
43364;BME280;40636;52.424;-1.948;2023-10-31T07:39:33;98374.50;;;9.41;87.79
43364;BME280;40636;52.424;-1.948;2023-10-31T07:42:00;98373.50;;;9.45;87.81
43364;BME280;40636;52.424;-1.948;2023-10-31T07:44:27;98388.97;;;9.48;87.70
43364;BME280;40636;52.424;-1.948;2023-10-31T07:46:54;98381.09;;;9.51;87.81
43364;BME280;40636;52.424;-1.948;2023-10-31T07:49:21;98378.44;;;9.52;87.34
43364;BME280;40636;52.424;-1.948;2023-10-31T07:51:48;98382.75;;;9.54;88.07
43364;BME280;40636;52.424;-1.948;2023-10-31T07:54:15;98383.59;;;9.54;87.73
43364;BME280;40636;52.424;-1.948;2023-10-31T07:56:43;98383.59;;;9.54;87.83
43364;BME280;40636;52.424;-1.948;2023-10-31T07:59:09;98394.75;;;9.56;87.34
43364;BME280;40636;52.424;-1.948;2023-10-31T08:01:37;98395.59;;;9.57;87.39
43364;BME280;40636;52.424;-1.948;2023-10-31T08:04:04;98392.13;;;9.58;87.45
43364;BME280;40636;52.424;-1.948;2023-10-31T08:06:31;98394.66;;;9.59;87.07
43364;BME280;40636;52.424;-1.948;2023-10-31T08:08:58;98397.16;;;9.62;87.23
43364;BME280;40636;52.424;-1.948;2023-10-31T08:11:24;98398.81;;;9.65;87.90
43364;BME280;40636;52.424;-1.948;2023-10-31T08:13:52;98405.59;;;9.69;87.83
43364;BME280;40636;52.424;-1.948;2023-10-31T08:16:19;98407.28;;;9.70;87.61
43364;BME280;40636;52.424;-1.948;2023-10-31T08:18:47;98411.53;;;9.72;87.96
43364;BME280;40636;52.424;-1.948;2023-10-31T08:21:14;98413.13;;;9.76;87.42
43364;BME280;40636;52.424;-1.948;2023-10-31T08:23:42;98413.94;;;9.78;88.05
43364;BME280;40636;52.424;-1.948;2023-10-31T08:26:11;98417.34;;;9.80;87.25
43364;BME280;40636;52.424;-1.948;2023-10-31T08:28:40;98418.13;;;9.84;87.28
43364;BME280;40636;52.424;-1.948;2023-10-31T08:31:07;98429.19;;;9.89;87.87
43364;BME280;40636;52.424;-1.948;2023-10-31T08:33:34;98421.38;;;9.91;87.42
43364;BME280;40636;52.424;-1.948;2023-10-31T08:36:01;98416.97;;;9.93;87.26
43364;BME280;40636;52.424;-1.948;2023-10-31T08:38:27;98413.47;;;9.94;87.58
43364;BME280;40636;52.424;-1.948;2023-10-31T08:40:58;98409.91;;;9.98;87.39
43364;BME280;40636;52.424;-1.948;2023-10-31T08:43:25;98411.50;;;10.02;87.49
43364;BME280;40636;52.424;-1.948;2023-10-31T08:45:52;98410.53;;;10.04;87.57
43364;BME280;40636;52.424;-1.948;2023-10-31T08:48:19;98413.03;;;10.07;87.75
43364;BME280;40636;52.424;-1.948;2023-10-31T08:50:46;98407.84;;;10.07;87.17
43364;BME280;40636;52.424;-1.948;2023-10-31T08:53:12;98412.94;;;10.10;87.21
43364;BME280;40636;52.424;-1.948;2023-10-31T08:55:40;98412.88;;;10.12;87.43
43364;BME280;40636;52.424;-1.948;2023-10-31T08:58:14;98421.47;;;10.14;87.65
43364;BME280;40636;52.424;-1.948;2023-10-31T09:00:41;98419.69;;;10.16;87.08
43364;BME280;40636;52.424;-1.948;2023-10-31T09:03:08;98415.28;;;10.18;87.52
43364;BME280;40636;52.424;-1.948;2023-10-31T09:05:35;98421.31;;;10.20;87.53
43364;BME280;40636;52.424;-1.948;2023-10-31T09:08:02;98420.34;;;10.23;87.32
43364;BME280;40636;52.424;-1.948;2023-10-31T09:10:28;98422.06;;;10.24;87.21
43364;BME280;40636;52.424;-1.948;2023-10-31T09:12:55;98415.06;;;10.26;87.20
43364;BME280;40636;52.424;-1.948;2023-10-31T09:15:22;98428.84;;;10.28;86.84
43364;BME280;40636;52.424;-1.948;2023-10-31T09:17:49;98424.50;;;10.28;87.33
43364;BME280;40636;52.424;-1.948;2023-10-31T09:20:17;98422.69;;;10.30;87.38
43364;BME280;40636;52.424;-1.948;2023-10-31T09:22:43;98421.75;;;10.33;87.45
43364;BME280;40636;52.424;-1.948;2023-10-31T09:25:10;98432.06;;;10.34;87.36
43364;BME280;40636;52.424;-1.948;2023-10-31T09:27:40;98425.88;;;10.38;87.38
43364;BME280;40636;52.424;-1.948;2023-10-31T09:30:08;98426.72;;;10.40;87.42
43364;BME280;40636;52.424;-1.948;2023-10-31T09:32:35;98438.75;;;10.43;87.45
43364;BME280;40636;52.424;-1.948;2023-10-31T09:35:03;98429.94;;;10.47;87.31
43364;BME280;40636;52.424;-1.948;2023-10-31T09:37:30;98440.22;;;10.50;87.27
43364;BME280;40636;52.424;-1.948;2023-10-31T09:39:57;98449.66;;;10.53;87.17
43364;BME280;40636;52.424;-1.948;2023-10-31T09:42:24;98436.53;;;10.57;87.42
43364;BME280;40636;52.424;-1.948;2023-10-31T09:44:51;98445.00;;;10.62;87.32
43364;BME280;40636;52.424;-1.948;2023-10-31T09:47:20;98448.34;;;10.66;87.40
43364;BME280;40636;52.424;-1.948;2023-10-31T09:49:47;98444.78;;;10.68;87.38
43364;BME280;40636;52.424;-1.948;2023-10-31T09:52:14;98455.13;;;10.70;87.33
43364;BME280;40636;52.424;-1.948;2023-10-31T09:54:41;98455.09;;;10.71;87.16
43364;BME280;40636;52.424;-1.948;2023-10-31T09:57:12;98452.31;;;10.76;87.18
43364;BME280;40636;52.424;-1.948;2023-10-31T09:59:39;98457.31;;;10.82;87.47
43364;BME280;40636;52.424;-1.948;2023-10-31T10:02:06;98462.44;;;10.84;87.21
43364;BME280;40636;52.424;-1.948;2023-10-31T10:04:37;98456.25;;;10.88;87.44
43364;BME280;40636;52.424;-1.948;2023-10-31T10:07:18;98461.34;;;10.91;86.95
43364;BME280;40636;52.424;-1.948;2023-10-31T10:09:46;98459.59;;;10.91;86.97
43364;BME280;40636;52.424;-1.948;2023-10-31T10:12:13;98468.91;;;10.97;87.09
43364;BME280;40636;52.424;-1.948;2023-10-31T10:14:41;98458.38;;;11.01;87.13
43364;BME280;40636;52.424;-1.948;2023-10-31T10:17:21;98464.09;;;11.11;87.66
43364;BME280;40636;52.424;-1.948;2023-10-31T10:20:08;98457.63;;;11.23;87.54
43364;BME280;40636;52.424;-1.948;2023-10-31T10:22:42;98456.44;;;11.31;87.62
43364;BME280;40636;52.424;-1.948;2023-10-31T10:25:12;98457.97;;;11.37;87.90
43364;BME280;40636;52.424;-1.948;2023-10-31T10:27:41;98458.63;;;11.42;87.45
43364;BME280;40636;52.424;-1.948;2023-10-31T10:30:10;98454.06;;;11.49;87.26
43364;BME280;40636;52.424;-1.948;2023-10-31T10:32:38;98459.09;;;11.53;87.02
43364;BME280;40636;52.424;-1.948;2023-10-31T10:35:07;98459.88;;;11.55;86.99
43364;BME280;40636;52.424;-1.948;2023-10-31T10:37:37;98472.94;;;11.54;86.72
43364;BME280;40636;52.424;-1.948;2023-10-31T10:40:06;98474.06;;;11.47;86.63
43364;BME280;40636;52.424;-1.948;2023-10-31T10:45:04;98474.00;;;11.48;87.08
43364;BME280;40636;52.424;-1.948;2023-10-31T10:47:33;98474.63;;;11.55;87.34
43364;BME280;40636;52.424;-1.948;2023-10-31T10:50:02;98461.47;;;11.59;87.00
43364;BME280;40636;52.424;-1.948;2023-10-31T10:52:38;98464.63;;;11.67;86.96
43364;BME280;40636;52.424;-1.948;2023-10-31T10:55:13;98458.34;;;11.73;86.71
43364;BME280;40636;52.424;-1.948;2023-10-31T10:57:48;98461.53;;;11.81;87.01
43364;BME280;40636;52.424;-1.948;2023-10-31T11:00:16;98464.75;;;11.88;86.94
43364;BME280;40636;52.424;-1.948;2023-10-31T11:02:44;98459.50;;;11.89;86.98
43364;BME280;40636;52.424;-1.948;2023-10-31T11:05:12;98458.81;;;11.84;86.48
43364;BME280;40636;52.424;-1.948;2023-10-31T11:07:40;98464.94;;;11.83;86.33
43364;BME280;40636;52.424;-1.948;2023-10-31T11:10:08;98461.31;;;11.87;86.03
43364;BME280;40636;52.424;-1.948;2023-10-31T11:12:36;98467.97;;;11.94;86.23
43364;BME280;40636;52.424;-1.948;2023-10-31T11:15:04;98462.63;;;11.97;86.25
43364;BME280;40636;52.424;-1.948;2023-10-31T11:17:41;98476.31;;;12.02;86.13
43364;BME280;40636;52.424;-1.948;2023-10-31T11:20:46;98469.00;;;12.12;86.81
43364;BME280;40636;52.424;-1.948;2023-10-31T11:23:13;98472.22;;;12.19;86.79
43364;BME280;40636;52.424;-1.948;2023-10-31T11:25:52;98474.66;;;12.23;86.47
43364;BME280;40636;52.424;-1.948;2023-10-31T11:28:20;98482.41;;;12.25;86.17
43364;BME280;40636;52.424;-1.948;2023-10-31T11:30:50;98489.44;;;12.23;86.32
43364;BME280;40636;52.424;-1.948;2023-10-31T11:33:20;98486.75;;;12.24;85.78
43364;BME280;40636;52.424;-1.948;2023-10-31T11:36:03;98479.78;;;12.25;85.49
43364;BME280;40636;52.424;-1.948;2023-10-31T11:38:31;98486.75;;;12.24;85.81
43364;BME280;40636;52.424;-1.948;2023-10-31T11:41:01;98492.94;;;12.22;85.23
43364;BME280;40636;52.424;-1.948;2023-10-31T11:43:49;98487.84;;;12.19;85.86
43364;BME280;40636;52.424;-1.948;2023-10-31T11:46:22;98491.38;;;12.18;85.81
43364;BME280;40636;52.424;-1.948;2023-10-31T11:48:52;98487.13;;;12.15;85.77
43364;BME280;40636;52.424;-1.948;2023-10-31T11:51:19;98486.31;;;12.13;85.22
43364;BME280;40636;52.424;-1.948;2023-10-31T11:53:48;98490.56;;;12.16;85.98
43364;BME280;40636;52.424;-1.948;2023-10-31T11:56:16;98486.22;;;12.16;85.58
43364;BME280;40636;52.424;-1.948;2023-10-31T11:58:43;98491.47;;;12.15;86.14
43364;BME280;40636;52.424;-1.948;2023-10-31T12:01:10;98490.56;;;12.16;86.34
43364;BME280;40636;52.424;-1.948;2023-10-31T12:03:38;98487.84;;;12.19;86.29
43364;BME280;40636;52.424;-1.948;2023-10-31T12:06:09;98479.91;;;12.22;86.26
43364;BME280;40636;52.424;-1.948;2023-10-31T12:08:39;98475.44;;;12.25;85.87
43364;BME280;40636;52.424;-1.948;2023-10-31T12:11:08;98471.75;;;12.31;86.29
43364;BME280;40636;52.424;-1.948;2023-10-31T12:13:41;98467.25;;;12.34;85.84
43364;BME280;40636;52.424;-1.948;2023-10-31T12:16:09;98476.63;;;12.39;85.82
43364;BME280;40636;52.424;-1.948;2023-10-31T12:18:38;98476.44;;;12.43;85.94
43364;BME280;40636;52.424;-1.948;2023-10-31T12:21:07;98468.63;;;12.43;85.60
43364;BME280;40636;52.424;-1.948;2023-10-31T12:23:35;98468.75;;;12.40;85.27
43364;BME280;40636;52.424;-1.948;2023-10-31T12:26:02;98473.19;;;12.38;85.13
43364;BME280;40636;52.424;-1.948;2023-10-31T12:28:29;98471.63;;;12.34;85.70
43364;BME280;40636;52.424;-1.948;2023-10-31T12:30:56;98475.97;;;12.33;84.55
43364;BME280;40636;52.424;-1.948;2023-10-31T12:33:27;98473.44;;;12.32;84.82
43364;BME280;40636;52.424;-1.948;2023-10-31T12:35:57;98482.22;;;12.29;85.20
43364;BME280;40636;52.424;-1.948;2023-10-31T12:38:25;98475.38;;;12.27;85.06
43364;BME280;40636;52.424;-1.948;2023-10-31T12:40:53;98475.25;;;12.30;85.42
43364;BME280;40636;52.424;-1.948;2023-10-31T12:43:21;98475.84;;;12.37;84.86
43364;BME280;40636;52.424;-1.948;2023-10-31T12:45:48;98469.66;;;12.39;84.93
43364;BME280;40636;52.424;-1.948;2023-10-31T12:48:15;98477.41;;;12.41;84.93
43364;BME280;40636;52.424;-1.948;2023-10-31T12:50:42;98480.75;;;12.44;85.25
43364;BME280;40636;52.424;-1.948;2023-10-31T12:53:09;98481.47;;;12.48;85.46
43364;BME280;40636;52.424;-1.948;2023-10-31T12:55:41;98478.66;;;12.52;85.30
43364;BME280;40636;52.424;-1.948;2023-10-31T12:58:08;98481.16;;;12.55;85.17
43364;BME280;40636;52.424;-1.948;2023-10-31T13:00:37;98475.88;;;12.57;84.83
43364;BME280;40636;52.424;-1.948;2023-10-31T13:03:06;98481.09;;;12.57;84.20
43364;BME280;40636;52.424;-1.948;2023-10-31T13:05:35;98479.19;;;12.60;84.54